Time;durP1;ratioP1;P1;durP2;ratioP2;P2;SDS_P1;SDS_P2;PMS_P1;PMS_P2;Temp;Humidity;BMP_temperature;BMP_pressure;BME280_temperature;BME280_humidity;BME280_pressure;Samples;Min_cycle;Max_cycle;Signal;HPM_P1;HPM_P2
2022/05/25 00:01:38;;;;;;;4.65;1.92;;;;;;;12.19;79.49;101279.22;6241467;22;20082;-62
2022/05/25 00:04:05;;;;;;;5.10;1.70;;;;;;;12.12;80.03;101276.78;6267544;22;20375;-61
2022/05/25 00:06:30;;;;;;;6.18;2.03;;;;;;;12.09;80.53;101278.63;6268239;22;20031;-62
2022/05/25 00:08:56;;;;;;;6.35;2.22;;;;;;;12.00;80.64;101285.06;6267326;22;20019;-61
2022/05/25 00:11:21;;;;;;;5.57;1.77;;;;;;;11.93;80.68;101272.97;6265924;22;20008;-61
2022/05/25 00:13:46;;;;;;;4.15;1.90;;;;;;;11.86;81.12;101280.25;6267851;22;20007;-61
2022/05/25 00:16:12;;;;;;;6.63;2.38;;;;;;;11.82;81.29;101282.13;6266646;22;20327;-61
2022/05/25 00:19:58;;;;;;;3.10;2.05;;;;;;;11.75;81.91;101280.59;6267876;22;20110;-61
2022/05/25 00:21:23;;;;;;;4.43;2.20;;;;;;;11.71;82.21;101278.97;6265682;22;20008;-61
2022/05/25 00:23:48;;;;;;;8.38;2.60;;;;;;;11.67;82.33;101282.59;6266710;22;20061;-61
2022/05/25 00:26:13;;;;;;;4.57;2.30;;;;;;;11.62;82.21;101280.13;6264293;22;20003;-61
2022/05/25 00:28:39;;;;;;;5.38;2.63;;;;;;;11.57;82.32;101287.31;6267269;22;20014;-61
2022/05/25 00:31:04;;;;;;;3.65;2.55;;;;;;;11.52;82.08;101295.34;6265529;22;20007;-61
2022/05/25 00:33:29;;;;;;;5.18;3.38;;;;;;;11.45;82.57;101288.53;6267158;22;20381;-61
2022/05/25 00:35:55;;;;;;;3.70;2.70;;;;;;;11.42;82.51;101294.78;6268497;22;20007;-61
2022/05/25 00:38:20;;;;;;;5.50;2.80;;;;;;;11.37;83.24;101292.28;6267315;22;21067;-61
2022/05/25 00:40:45;;;;;;;4.72;3.25;;;;;;;11.38;83.10;101288.72;6267044;22;20558;-61
2022/05/25 00:43:14;;;;;;;5.30;3.00;;;;;;;11.45;83.01;101291.19;6266778;22;20069;-61
2022/05/25 00:46:07;;;;;;;9.88;3.65;;;;;;;11.45;83.64;101289.41;6267201;22;20038;-61
2022/05/25 00:48:41;;;;;;;4.65;3.00;;;;;;;11.56;83.59;101290.84;6234466;22;20065;-63
2022/05/25 00:51:12;;;;;;;4.60;3.10;;;;;;;11.57;83.17;101298.72;6266779;22;20008;-61
2022/05/25 00:53:40;;;;;;;5.53;3.40;;;;;;;11.61;83.21;101305.63;6265810;22;20094;-61
2022/05/25 00:56:07;;;;;;;6.75;3.38;;;;;;;11.61;83.14;101303.00;6266015;22;19999;-61
2022/05/25 00:58:34;;;;;;;4.32;3.08;;;;;;;11.61;83.22;101302.13;6266897;22;19999;-61
2022/05/25 01:01:00;;;;;;;5.57;3.15;;;;;;;11.61;83.37;101308.28;6240340;22;20039;-61
2022/05/25 01:03:26;;;;;;;6.40;3.13;;;;;;;11.60;83.30;101303.03;6266922;22;20056;-61
2022/05/25 01:06:17;;;;;;;4.18;2.78;;;;;;;11.62;83.20;101309.16;6239915;22;20409;-60
2022/05/25 01:09:09;;;;;;;5.25;2.95;;;;;;;11.62;83.03;101307.34;6264621;22;20086;-61
2022/05/25 01:12:06;;;;;;;6.30;3.05;;;;;;;11.60;83.47;101306.56;6268842;22;20016;-61
2022/05/25 01:14:53;;;;;;;3.90;3.10;;;;;;;11.57;83.51;101309.28;6235116;23;20079;-64
2022/05/25 01:17:57;;;;;;;4.90;2.88;;;;;;;11.55;83.55;101303.19;6235186;23;20072;-61
2022/05/25 01:20:30;;;;;;;5.07;3.25;;;;;;;11.53;83.48;101299.72;6236769;23;20068;-61
2022/05/25 01:23:27;;;;;;;7.35;3.50;;;;;;;11.48;83.99;101309.56;6208388;23;20004;-61
2022/05/25 01:26:13;;;;;;;4.93;3.50;;;;;;;11.51;84.21;101304.19;6235836;23;20293;-60
2022/05/25 01:29:13;;;;;;;7.00;3.47;;;;;;;11.46;83.90;101308.72;6235836;23;20008;-62
2022/05/25 01:31:52;;;;;;;4.85;3.72;;;;;;;11.46;84.01;101311.38;6210218;23;20039;-62
2022/05/25 01:34:41;;;;;;;10.43;3.95;;;;;;;11.46;84.29;101311.38;6208246;23;20363;-61
2022/05/25 01:37:17;;;;;;;8.98;4.20;;;;;;;11.52;84.51;101311.19;6226906;23;20008;-61
2022/05/25 01:39:55;;;;;;;7.80;4.45;;;;;;;11.55;84.45;101311.09;6208220;23;20015;-61
2022/05/25 01:42:25;;;;;;;7.45;4.43;;;;;;;11.59;84.54;101307.44;6209308;23;20007;-61
2022/05/25 01:44:58;;;;;;;8.93;5.22;;;;;;;11.65;84.61;101313.47;6208699;23;20011;-61
2022/05/25 01:47:25;;;;;;;8.65;4.97;;;;;;;11.74;85.10;101310.53;6209344;23;20000;-60
2022/05/25 01:50:03;;;;;;;13.13;5.82;;;;;;;11.78;85.20;101309.53;6234854;23;20015;-61
2022/05/25 01:52:31;;;;;;;15.45;5.82;;;;;;;11.83;85.33;101310.22;6210200;23;20031;-61
2022/05/25 01:55:00;;;;;;;9.75;5.72;;;;;;;11.84;84.82;101317.25;6208692;23;20031;-61
2022/05/25 01:57:27;;;;;;;8.10;6.07;;;;;;;11.87;85.16;101319.78;6209110;23;20005;-61
2022/05/25 01:59:53;;;;;;;15.13;6.32;;;;;;;11.88;85.02;101323.28;6209568;23;20071;-61
2022/05/25 02:05:07;;;;;;;11.23;6.00;;;;;;;11.88;84.66;101332.09;6235436;23;20074;-61
2022/05/25 02:07:55;;;;;;;14.20;6.70;;;;;;;11.91;84.80;101328.47;6209589;23;20012;-61
2022/05/25 02:10:42;;;;;;;14.57;7.25;;;;;;;11.94;85.32;101327.50;6207658;23;20034;-62
2022/05/25 02:13:13;;;;;;;17.42;7.43;;;;;;;12.01;85.47;101327.28;6234997;23;20022;-61
2022/05/25 02:15:46;;;;;;;16.83;7.72;;;;;;;12.03;85.21;101329.88;6235968;23;20012;-61
2022/05/25 02:18:11;;;;;;;16.90;8.02;;;;;;;12.05;85.00;101322.78;6208567;23;20012;-61
2022/05/25 02:21:05;;;;;;;19.00;7.75;;;;;;;12.01;85.34;101324.63;6234325;23;20043;-61
2022/05/25 02:23:35;;;;;;;18.80;7.85;;;;;;;11.98;85.00;101323.88;6232011;23;20074;-61
2022/05/25 02:26:11;;;;;;;19.50;8.93;;;;;;;11.99;85.10;101321.19;6235290;23;20007;-61
2022/05/25 02:28:43;;;;;;;18.38;8.10;;;;;;;11.95;85.05;101331.91;6208863;23;20065;-61
2022/05/25 02:31:12;;;;;;;17.60;9.02;;;;;;;11.92;85.08;101327.56;6234211;23;20452;-61
2022/05/25 02:33:43;;;;;;;22.00;9.05;;;;;;;11.93;85.16;101336.34;6238212;23;20011;-61
2022/05/25 02:36:10;;;;;;;23.33;8.25;;;;;;;11.88;85.20;101340.00;6210074;23;20016;-60
2022/05/25 02:38:37;;;;;;;20.52;8.32;;;;;;;11.86;85.42;101347.09;6211257;23;20004;-61
2022/05/25 02:41:11;;;;;;;17.00;9.98;;;;;;;11.85;85.65;101341.88;6235852;23;20326;-60
2022/05/25 02:43:38;;;;;;;21.83;9.95;;;;;;;11.90;85.47;101336.44;6211174;23;20004;-61
2022/05/25 02:46:06;;;;;;;22.48;9.43;;;;;;;11.88;85.46;101337.38;6237565;23;20008;-62
2022/05/25 02:48:32;;;;;;;21.57;9.77;;;;;;;11.91;85.86;101336.41;6211317;23;20062;-64
2022/05/25 02:50:57;;;;;;;23.73;9.35;;;;;;;11.93;85.83;101341.63;6237347;23;20012;-61
2022/05/25 02:53:23;;;;;;;27.52;10.93;;;;;;;11.96;85.81;101336.25;6237594;23;20054;-61
2022/05/25 02:55:49;;;;;;;16.92;9.10;;;;;;;11.93;85.86;101339.88;6236097;23;20442;-62
2022/05/25 02:58:15;;;;;;;25.52;10.00;;;;;;;11.88;85.61;101342.66;6238235;23;20014;-60
2022/05/25 03:00:40;;;;;;;21.05;10.48;;;;;;;11.87;85.77;101338.25;6236356;23;20031;-61
2022/05/25 03:03:05;;;;;;;17.63;9.32;;;;;;;11.82;85.65;101340.19;6238420;23;20000;-62
2022/05/25 03:05:31;;;;;;;19.75;9.95;;;;;;;11.82;85.94;101342.84;6237455;23;20442;-60
2022/05/25 03:07:56;;;;;;;18.08;8.98;;;;;;;11.74;85.93;101348.34;6238373;23;20422;-61
2022/05/25 03:10:22;;;;;;;23.48;9.63;;;;;;;11.72;85.51;101351.97;6236337;23;20014;-60
2022/05/25 03:12:47;;;;;;;17.25;9.02;;;;;;;11.70;85.83;101349.34;6237337;23;20094;-61
2022/05/25 03:15:13;;;;;;;18.42;8.82;;;;;;;11.69;85.70;101359.97;6210731;23;20220;-61
2022/05/25 03:17:40;;;;;;;16.50;8.63;;;;;;;11.67;85.70;101367.06;6237215;23;19996;-61
2022/05/25 03:20:06;;;;;;;21.80;9.20;;;;;;;11.63;86.11;101361.03;6237189;23;20004;-61
2022/05/25 03:22:34;;;;;;;23.38;10.82;;;;;;;11.63;86.42;101367.16;6237281;23;20072;-63
2022/05/25 03:24:59;;;;;;;25.38;10.75;;;;;;;11.62;86.33;101365.44;6237053;23;20001;-61
2022/05/25 03:27:24;;;;;;;21.67;11.25;;;;;;;11.64;86.18;101365.38;6236913;23;20090;-60
2022/05/25 03:29:50;;;;;;;19.52;11.00;;;;;;;11.61;86.62;101368.09;6236860;23;20008;-61
2022/05/25 03:32:15;;;;;;;18.23;10.93;;;;;;;11.60;86.08;101372.53;6236702;23;20000;-61
2022/05/25 03:34:41;;;;;;;25.05;11.73;;;;;;;11.58;86.41;101374.34;6237053;23;20067;-60
2022/05/25 03:37:06;;;;;;;32.53;12.48;;;;;;;11.63;86.59;101382.97;6236699;23;20036;-60
2022/05/25 03:39:31;;;;;;;29.73;14.88;;;;;;;11.63;87.00;101377.69;6237588;23;20008;-62
2022/05/25 03:42:04;;;;;;;27.33;12.52;;;;;;;11.72;86.97;101383.63;6237035;23;20000;-61
2022/05/25 03:44:30;;;;;;;29.77;13.23;;;;;;;11.80;86.86;101384.25;6239793;23;20080;-61
2022/05/25 03:46:55;;;;;;;24.67;14.23;;;;;;;11.82;87.24;101385.09;6239107;23;20027;-62
2022/05/25 03:49:21;;;;;;;22.27;13.27;;;;;;;11.95;87.38;101387.34;6237802;23;20011;-63
2022/05/25 03:51:46;;;;;;;26.42;12.90;;;;;;;12.02;87.13;101383.63;6238087;23;20023;-62
2022/05/25 03:54:12;;;;;;;26.23;12.48;;;;;;;12.08;87.28;101383.47;6236492;23;20392;-61
2022/05/25 03:56:38;;;;;;;31.13;11.93;;;;;;;12.05;87.19;101374.72;6237881;23;20121;-62
2022/05/25 03:59:03;;;;;;;29.60;11.68;;;;;;;12.05;86.82;101375.59;6237063;23;19992;-62
2022/05/25 04:01:30;;;;;;;21.50;12.85;;;;;;;12.10;86.87;101380.75;6238657;23;20009;-61
2022/05/25 04:03:55;;;;;;;24.75;12.55;;;;;;;12.12;86.73;101379.81;6237115;23;20083;-62
2022/05/25 04:06:20;;;;;;;21.92;11.32;;;;;;;12.12;87.24;101384.22;6237788;23;20059;-62
2022/05/25 04:08:46;;;;;;;20.73;11.30;;;;;;;12.20;87.21;101386.59;6236596;23;20011;-64
2022/05/25 04:11:11;;;;;;;28.63;13.55;;;;;;;12.27;86.96;101382.84;6237108;23;20004;-63
2022/05/25 04:13:36;;;;;;;30.00;13.32;;;;;;;12.34;87.10;101388.81;6237347;23;20015;-62
2022/05/25 04:16:02;;;;;;;28.58;12.98;;;;;;;12.45;87.58;101386.69;6237611;23;20320;-63
2022/05/25 04:18:27;;;;;;;31.85;12.75;;;;;;;12.56;87.04;101386.31;6211103;23;20003;-64
2022/05/25 04:20:53;;;;;;;29.88;12.60;;;;;;;12.70;86.95;101390.28;6237295;23;20094;-62
2022/05/25 04:23:20;;;;;;;25.10;12.73;;;;;;;12.70;86.20;101392.94;6236212;23;20404;-62
2022/05/25 04:25:45;;;;;;;26.67;12.07;;;;;;;12.87;86.17;101394.97;6236608;23;20034;-61
2022/05/25 04:28:10;;;;;;;19.42;12.13;;;;;;;12.99;85.18;101397.22;6237026;23;20004;-61
2022/05/25 04:30:36;;;;;;;24.58;11.85;;;;;;;13.00;84.84;101398.94;6237123;23;20389;-63
2022/05/25 04:33:02;;;;;;;19.77;10.98;;;;;;;13.08;83.72;101396.00;6208925;23;20061;-63
2022/05/25 04:35:27;;;;;;;20.15;11.43;;;;;;;13.02;83.59;101394.44;6237585;23;20432;-62
2022/05/25 04:37:53;;;;;;;21.27;11.20;;;;;;;13.06;83.91;101394.34;6209398;23;20008;-61
2022/05/25 04:40:32;;;;;;;19.05;10.77;;;;;;;13.06;83.73;101392.53;6236311;23;20320;-61
2022/05/25 04:43:00;;;;;;;24.20;11.45;;;;;;;13.07;83.53;101394.28;6235284;23;20350;-64
2022/05/25 04:45:27;;;;;;;19.38;10.70;;;;;;;13.08;83.21;101389.84;6236931;23;20071;-60
2022/05/25 04:47:53;;;;;;;18.95;12.57;;;;;;;13.06;83.01;101391.69;6237049;23;20008;-60
2022/05/25 04:50:21;;;;;;;19.20;11.05;;;;;;;12.99;82.83;101399.84;6235973;23;20028;-63
2022/05/25 04:52:46;;;;;;;21.45;11.27;;;;;;;13.00;82.89;101383.06;6237118;23;20004;-62
2022/05/25 04:57:56;;;;;;;19.13;10.70;;;;;;;12.99;82.91;101383.09;6237212;23;20035;-62
2022/05/25 05:00:21;;;;;;;19.48;11.07;;;;;;;12.97;83.20;101382.28;6236254;23;20421;-60
2022/05/25 05:02:46;;;;;;;22.98;12.00;;;;;;;13.05;82.89;101382.88;6236084;23;20000;-61
2022/05/25 05:05:14;;;;;;;18.88;11.32;;;;;;;13.13;82.76;101386.13;6235685;23;20000;-61
2022/05/25 05:07:40;;;;;;;20.10;12.27;;;;;;;13.17;82.82;101380.72;6235751;23;20010;-62
2022/05/25 05:10:06;;;;;;;19.42;11.13;;;;;;;13.17;82.45;101391.28;6236124;23;20004;-63
2022/05/25 05:12:31;;;;;;;24.42;11.45;;;;;;;13.27;82.88;101384.75;6235362;23;20008;-65
2022/05/25 05:14:57;;;;;;;15.48;9.30;;;;;;;13.40;82.58;101391.31;6238050;23;20103;-61
2022/05/25 05:17:23;;;;;;;22.38;10.55;;;;;;;13.35;81.73;101388.00;6234953;23;20072;-62
2022/05/25 05:19:48;;;;;;;18.50;9.70;;;;;;;13.39;81.34;101389.59;6237355;23;20004;-62
2022/05/25 05:22:14;;;;;;;15.90;10.00;;;;;;;13.45;80.88;101387.66;6234605;23;20030;-62
2022/05/25 05:24:40;;;;;;;20.20;10.50;;;;;;;13.46;81.07;101394.69;6235908;23;19989;-62
2022/05/25 05:27:06;;;;;;;21.75;9.60;;;;;;;13.56;80.83;101396.09;6209213;23;20001;-62
2022/05/25 05:29:32;;;;;;;18.33;10.45;;;;;;;13.53;80.88;101390.91;6210371;23;20011;-63
2022/05/25 05:31:58;;;;;;;17.17;10.65;;;;;;;13.52;80.93;101392.69;6237533;23;20076;-62
2022/05/25 05:34:27;;;;;;;20.63;10.60;;;;;;;13.64;80.60;101391.34;6235073;23;20010;-62
2022/05/25 05:37:14;;;;;;;15.13;10.05;;;;;;;13.72;80.39;101392.84;6236729;23;20012;-62
2022/05/25 05:39:43;;;;;;;22.55;10.30;;;;;;;13.83;79.93;101409.19;6234750;23;20032;-62
2022/05/25 05:42:11;;;;;;;20.02;10.45;;;;;;;13.94;79.77;101400.81;6236632;23;20004;-63
2022/05/25 05:44:43;;;;;;;19.02;10.65;;;;;;;14.08;79.16;101402.94;6209435;23;20424;-61
2022/05/25 05:47:11;;;;;;;16.98;9.50;;;;;;;14.31;78.30;101401.16;6236138;23;20012;-63
2022/05/25 05:49:38;;;;;;;19.48;10.30;;;;;;;14.38;78.38;101397.31;6236585;23;20338;-62
2022/05/25 05:52:03;;;;;;;21.23;11.13;;;;;;;14.49;78.00;101396.88;6207821;23;20024;-62
2022/05/25 05:54:29;;;;;;;24.00;11.93;;;;;;;14.59;77.64;101396.47;6207917;23;20007;-60
2022/05/25 05:56:54;;;;;;;20.55;11.20;;;;;;;14.73;77.40;101403.84;6234549;23;20490;-62
2022/05/25 05:59:19;;;;;;;20.85;12.32;;;;;;;14.77;77.08;101401.00;6236248;23;20004;-64
2022/05/25 06:01:45;;;;;;;23.30;13.70;;;;;;;14.74;76.86;101400.28;6234674;23;20011;-62
2022/05/25 06:04:11;;;;;;;21.10;13.15;;;;;;;14.86;76.77;101407.75;6236426;23;20007;-62
2022/05/25 06:06:36;;;;;;;29.02;14.77;;;;;;;14.77;76.51;101413.41;6234879;23;20008;-62
2022/05/25 06:09:02;;;;;;;22.80;14.20;;;;;;;14.87;76.03;101411.28;6235353;23;20066;-61
2022/05/25 06:11:27;;;;;;;23.75;13.77;;;;;;;15.02;75.30;101421.19;6210664;23;20011;-60
2022/05/25 06:13:52;;;;;;;20.50;12.85;;;;;;;15.13;74.94;101412.78;6237384;23;20016;-60
2022/05/25 06:21:46;;;;;;;26.52;13.65;;;;;;;15.32;74.70;101422.56;6238393;23;20507;-62
2022/05/25 06:24:11;;;;;;;23.65;13.80;;;;;;;15.45;73.77;101422.91;6235980;23;20300;-63
2022/05/25 06:26:37;;;;;;;25.90;14.68;;;;;;;15.46;73.26;101419.31;6238593;23;20320;-62
2022/05/25 06:29:02;;;;;;;19.88;14.32;;;;;;;15.47;73.21;101425.50;6210459;23;20087;-62
2022/05/25 06:31:31;;;;;;;25.67;14.82;;;;;;;15.39;73.23;101426.66;6236726;23;20028;-61
2022/05/25 06:33:57;;;;;;;19.90;14.95;;;;;;;15.23;74.02;101436.28;6237197;23;20027;-61
2022/05/25 06:36:25;;;;;;;19.52;15.55;;;;;;;15.27;74.20;101435.19;6235067;23;20084;-63
2022/05/25 06:38:50;;;;;;;24.02;16.00;;;;;;;15.30;73.75;101445.69;6236532;23;20464;-64
2022/05/25 06:41:16;;;;;;;20.85;14.13;;;;;;;15.66;72.83;101438.78;6236920;23;20429;-63
2022/05/25 06:43:42;;;;;;;26.92;15.98;;;;;;;15.77;72.49;101435.59;6237657;23;20084;-62
2022/05/25 06:46:08;;;;;;;21.70;14.38;;;;;;;15.88;72.36;101446.63;6237887;23;20000;-64
2022/05/25 06:48:34;;;;;;;25.20;14.80;;;;;;;16.00;71.97;101439.03;6237967;23;20083;-62
2022/05/25 06:51:13;;;;;;;23.23;15.05;;;;;;;16.23;71.72;101450.38;6237265;23;20036;-62
2022/05/25 06:53:39;;;;;;;22.92;14.00;;;;;;;16.35;70.51;101446.25;6236208;23;20007;-62
2022/05/25 06:56:04;;;;;;;24.58;14.20;;;;;;;16.57;69.83;101454.03;6237195;23;20004;-61
2022/05/25 06:58:29;;;;;;;27.23;15.27;;;;;;;16.59;69.93;101449.50;6238709;23;20091;-65
2022/05/25 07:00:55;;;;;;;21.33;14.00;;;;;;;16.62;70.01;101453.81;6237647;23;20424;-62
2022/05/25 07:03:21;;;;;;;22.05;14.20;;;;;;;16.62;69.17;101452.00;6237068;23;20357;-62
2022/05/25 07:05:46;;;;;;;20.67;14.07;;;;;;;16.44;70.30;101455.56;6235779;23;20011;-64
2022/05/25 07:08:12;;;;;;;20.35;13.93;;;;;;;16.56;69.62;101460.31;6235749;23;20008;-62
2022/05/25 07:10:37;;;;;;;26.92;13.63;;;;;;;16.61;69.57;101460.03;6235668;23;20031;-62
2022/05/25 07:13:02;;;;;;;20.35;14.13;;;;;;;16.55;69.38;101459.44;6235462;23;20081;-62
2022/05/25 07:15:27;;;;;;;18.17;13.32;;;;;;;16.77;68.45;101462.81;6238162;23;20004;-62
2022/05/25 07:17:53;;;;;;;24.77;11.93;;;;;;;16.86;68.16;101459.66;6235897;23;20004;-61
2022/05/25 07:20:18;;;;;;;16.95;11.73;;;;;;;16.75;67.68;101462.91;6238057;23;20113;-61
2022/05/25 07:22:44;;;;;;;21.40;11.55;;;;;;;16.86;67.21;101467.66;6236176;23;20087;-63
2022/05/25 07:25:09;;;;;;;19.75;10.77;;;;;;;16.97;67.19;101460.94;6236757;23;20000;-63
2022/05/25 07:27:34;;;;;;;19.05;11.20;;;;;;;16.99;67.43;101462.59;6236881;23;20000;-62
2022/05/25 07:30:00;;;;;;;17.63;10.77;;;;;;;17.25;66.80;101465.72;6237356;23;20004;-64
2022/05/25 07:32:25;;;;;;;19.50;10.15;;;;;;;17.11;66.24;101474.44;6237008;23;20075;-62
2022/05/25 07:35:02;;;;;;;14.30;9.35;;;;;;;17.15;66.19;101475.13;6236887;23;20287;-62
2022/05/25 07:37:35;;;;;;;20.50;10.63;;;;;;;16.86;66.94;101469.47;6237838;23;20007;-63
2022/05/25 07:40:13;;;;;;;18.15;10.48;;;;;;;16.70;68.08;101474.72;6236096;23;19996;-64
2022/05/25 07:42:41;;;;;;;20.85;10.63;;;;;;;16.51;68.94;101476.47;6209949;23;20093;-61
2022/05/25 07:45:07;;;;;;;17.83;9.13;;;;;;;16.65;68.18;101473.13;6208321;23;20005;-62
2022/05/25 07:47:33;;;;;;;13.23;8.52;;;;;;;16.91;66.56;101473.63;6236706;23;20004;-61
2022/05/25 07:49:59;;;;;;;17.73;8.75;;;;;;;17.12;65.99;101475.28;6235924;23;20004;-62
2022/05/25 07:52:27;;;;;;;11.25;8.43;;;;;;;17.15;66.42;101475.13;6236881;23;20000;-61
2022/05/25 07:54:54;;;;;;;17.77;7.72;;;;;;;17.45;64.65;101481.63;6183472;23;20429;-61
2022/05/25 07:57:19;;;;;;;11.63;6.53;;;;;;;17.37;64.51;101479.34;6237688;23;20004;-62
2022/05/25 07:59:45;;;;;;;11.68;6.65;;;;;;;17.59;63.39;101488.84;6238408;23;20095;-61
2022/05/25 08:07:50;;;;;;;9.35;5.80;;;;;;;18.52;61.56;101477.59;6213945;23;20023;-63
2022/05/25 08:10:19;;;;;;;13.40;6.10;;;;;;;18.91;60.71;101473.53;6235857;23;20004;-65
2022/05/25 08:12:45;;;;;;;12.70;6.00;;;;;;;18.99;59.89;101482.91;6236890;23;20012;-62
2022/05/25 08:15:12;;;;;;;13.48;5.25;;;;;;;18.92;59.37;101479.72;6236946;23;20000;-64
2022/05/25 08:17:38;;;;;;;13.60;5.68;;;;;;;18.77;60.20;101481.50;6237504;23;20008;-62
2022/05/25 08:20:04;;;;;;;10.32;5.25;;;;;;;18.47;61.79;101482.31;6235625;23;20004;-62
2022/05/25 08:22:30;;;;;;;10.07;4.78;;;;;;;18.69;60.77;101474.78;6235195;23;20502;-62
2022/05/25 08:24:56;;;;;;;16.55;5.30;;;;;;;18.42;60.84;101482.56;6235093;23;20000;-62
2022/05/25 08:27:21;;;;;;;10.50;4.75;;;;;;;18.55;60.30;101483.59;6235519;23;20008;-62
2022/05/25 08:29:47;;;;;;;6.78;3.10;;;;;;;18.51;59.00;101478.56;6236593;23;20077;-62
2022/05/25 08:32:12;;;;;;;10.45;2.70;;;;;;;18.35;59.36;101487.41;6235110;23;20005;-64
2022/05/25 08:34:37;;;;;;;5.90;3.15;;;;;;;18.15;59.45;101497.41;6237144;23;20000;-61
2022/05/25 08:37:03;;;;;;;7.20;2.92;;;;;;;18.19;58.70;101490.94;6234628;23;20011;-63
2022/05/25 08:39:29;;;;;;;8.52;3.30;;;;;;;18.23;58.00;101478.31;6235217;23;20004;-62
2022/05/25 08:41:56;;;;;;;10.75;2.38;;;;;;;18.45;57.85;101469.06;6234612;23;20000;-62
2022/05/25 08:44:25;;;;;;;6.82;2.65;;;;;;;18.57;56.54;101480.84;6208894;23;20015;-63
2022/05/25 08:46:56;;;;;;;6.80;2.20;;;;;;;18.72;56.50;101484.44;6209487;23;20008;-64
2022/05/25 08:49:23;;;;;;;4.43;1.88;;;;;;;18.91;54.77;101478.03;6233805;23;20014;-64
2022/05/25 08:51:56;;;;;;;6.25;1.70;;;;;;;19.17;53.32;101481.81;6206912;23;20005;-63
2022/05/25 08:54:24;;;;;;;5.47;1.40;;;;;;;18.94;51.84;101486.69;6235834;23;20008;-62
2022/05/25 08:56:55;;;;;;;3.95;1.40;;;;;;;18.92;50.98;101474.38;6236214;23;20000;-63
2022/05/25 08:59:25;;;;;;;4.15;1.50;;;;;;;19.27;50.50;101463.41;6209788;23;20091;-62
2022/05/25 09:02:18;;;;;;;9.20;1.60;;;;;;;19.16;50.69;101472.09;6237203;23;20004;-62
2022/05/25 09:05:08;;;;;;;4.30;1.40;;;;;;;19.26;50.31;101474.22;6212841;23;20015;-61
2022/05/25 09:07:49;;;;;;;4.85;1.67;;;;;;;19.30;49.39;101473.91;6234760;23;20000;-62
2022/05/25 09:10:15;;;;;;;8.02;1.70;;;;;;;19.37;49.23;101485.09;6208713;23;20317;-61
2022/05/25 09:12:42;;;;;;;9.50;1.30;;;;;;;19.62;48.55;101475.56;6207495;23;20107;-64
2022/05/25 09:15:29;;;;;;;6.90;1.75;;;;;;;19.60;49.54;101484.63;6235420;23;20007;-64
2022/05/25 09:17:59;;;;;;;10.43;1.35;;;;;;;19.60;49.16;101489.97;6207633;23;20035;-61
2022/05/25 09:20:30;;;;;;;9.25;1.55;;;;;;;19.55;48.64;101487.59;6235190;23;20004;-61
2022/05/25 09:22:57;;;;;;;6.15;1.40;;;;;;;19.31;50.59;101504.16;6234064;23;20309;-66
2022/05/25 09:25:22;;;;;;;4.65;1.10;;;;;;;18.76;48.69;101506.47;6235930;23;20455;-61
2022/05/25 09:27:57;;;;;;;6.22;1.10;;;;;;;18.36;49.76;101510.47;6234977;23;20000;-63
2022/05/25 09:30:23;;;;;;;5.93;1.10;;;;;;;18.18;49.62;101509.69;6209229;23;20015;-62
2022/05/25 09:32:56;;;;;;;5.13;1.00;;;;;;;18.04;50.21;101516.66;6207491;23;20828;-63
2022/05/25 09:35:37;;;;;;;4.25;0.98;;;;;;;18.00;50.82;101520.41;6236213;23;20004;-65
2022/05/25 09:38:12;;;;;;;11.15;1.50;;;;;;;18.24;51.42;101541.34;6182518;23;20480;-65
2022/05/25 09:40:38;;;;;;;6.43;1.30;;;;;;;18.25;51.33;101513.75;6236454;23;20049;-62
2022/05/25 09:43:05;;;;;;;4.53;1.27;;;;;;;18.10;50.71;101518.13;6234151;23;20340;-64
2022/05/25 09:45:51;;;;;;;9.38;1.00;;;;;;;18.20;49.91;101521.16;6237312;23;20008;-60
2022/05/25 09:48:22;;;;;;;11.23;1.00;;;;;;;18.23;49.19;101514.78;6207971;23;20036;-64
2022/05/25 09:50:53;;;;;;;3.10;1.10;;;;;;;17.81;49.42;101539.19;6235651;23;20126;-61
2022/05/25 09:53:22;;;;;;;2.85;1.10;;;;;;;17.76;49.15;101528.78;6234670;23;20011;-64
2022/05/25 09:55:52;;;;;;;3.05;1.10;;;;;;;17.87;49.08;101538.88;6236637;23;20007;-62
2022/05/25 09:58:36;;;;;;;6.03;1.20;;;;;;;18.21;47.92;101541.53;6208795;23;20062;-63
2022/05/25 10:01:17;;;;;;;4.13;1.10;;;;;;;18.17;48.04;101523.97;6209750;23;20353;-62
2022/05/25 10:03:44;;;;;;;2.88;1.05;;;;;;;18.54;45.59;101515.69;6184769;23;20081;-60
2022/05/25 10:06:34;;;;;;;3.78;0.85;;;;;;;18.73;45.04;101517.31;6234709;23;19993;-61
2022/05/25 10:09:20;;;;;;;5.60;1.10;;;;;;;18.90;45.04;101530.56;6235633;23;20012;-63
2022/05/25 10:11:49;;;;;;;7.25;1.27;;;;;;;18.98;45.25;101527.44;6235733;23;20007;-62
2022/05/25 10:14:17;;;;;;;4.90;1.00;;;;;;;18.85;47.65;101526.44;6208243;23;20008;-63
2022/05/25 10:16:42;;;;;;;2.37;0.70;;;;;;;18.83;48.03;101529.19;6228208;23;20014;-61
2022/05/25 10:19:12;;;;;;;4.57;0.98;;;;;;;18.78;46.86;101525.94;6207372;23;20658;-60
2022/05/25 10:21:38;;;;;;;2.97;0.82;;;;;;;18.57;47.32;101534.22;6183978;23;20403;-60
2022/05/25 10:24:14;;;;;;;6.35;1.05;;;;;;;18.50;47.13;101530.19;6208937;23;20034;-65
2022/05/25 10:26:45;;;;;;;5.38;0.98;;;;;;;18.62;48.23;101548.16;6185083;23;20384;-62
2022/05/25 10:29:12;;;;;;;3.08;0.80;;;;;;;18.81;46.63;101536.41;6180583;23;20047;-62
2022/05/25 10:37:30;;;;;;;3.20;1.02;;;;;;;18.81;46.40;101580.00;6205598;23;20019;-63
2022/05/25 10:39:55;;;;;;;4.07;0.70;;;;;;;18.93;46.73;101549.06;6208960;23;20004;-62
2022/05/25 10:42:45;;;;;;;5.00;1.20;;;;;;;19.08;46.39;101533.13;6236164;23;20082;-62
2022/05/25 10:45:22;;;;;;;2.67;0.85;;;;;;;19.41;44.68;101540.06;6236083;23;20304;-61
2022/05/25 10:47:59;;;;;;;7.82;1.35;;;;;;;19.42;44.88;101531.09;6209256;23;20273;-65
2022/05/25 10:50:49;;;;;;;3.45;0.80;;;;;;;19.50;45.03;101538.66;6234055;23;20083;-61
2022/05/25 10:53:32;;;;;;;2.90;0.60;;;;;;;19.79;44.76;101548.50;6234932;23;20011;-62
2022/05/25 10:56:30;;;;;;;2.55;0.85;;;;;;;19.49;44.86;101525.38;6238691;23;20012;-66
2022/05/25 10:59:10;;;;;;;5.10;0.52;;;;;;;19.24;44.56;101554.47;6237734;23;20085;-62
2022/05/25 11:02:03;;;;;;;5.38;0.88;;;;;;;19.36;45.19;101543.97;6237437;23;20078;-60
2022/05/25 11:04:52;;;;;;;4.13;1.10;;;;;;;19.50;45.75;101540.47;6238532;23;20008;-65
2022/05/25 11:07:33;;;;;;;;;;;;;;;19.45;43.92;101538.91;6220495;23;20018;-60
2022/05/25 11:10:17;;;;;;;4.93;0.60;;;;;;;19.34;44.12;101533.38;6238627;23;19986;-63
2022/05/25 11:12:55;;;;;;;8.18;1.10;;;;;;;19.79;45.11;101529.78;6237387;23;20012;-62
2022/05/25 11:15:53;;;;;;;11.00;1.38;;;;;;;19.98;45.58;101553.56;6238111;23;20008;-62
2022/05/25 11:18:52;;;;;;;5.90;1.10;;;;;;;19.82;45.94;101532.28;6209054;23;20452;-61
2022/05/25 11:21:36;;;;;;;5.32;0.70;;;;;;;19.83;42.90;101531.31;6237064;23;20061;-63
2022/05/25 11:24:13;;;;;;;6.47;0.95;;;;;;;19.73;42.93;101527.50;6237750;23;20011;-63
2022/05/25 11:27:06;;;;;;;3.72;0.93;;;;;;;19.76;43.19;101532.66;6238667;23;20000;-63
2022/05/25 11:29:46;;;;;;;7.00;0.70;;;;;;;19.91;42.68;101523.69;6236911;23;20012;-64
2022/05/25 11:32:38;;;;;;;1.63;0.47;;;;;;;19.86;42.66;101535.63;6237332;23;20445;-62
2022/05/25 11:35:21;;;;;;;2.03;0.57;;;;;;;19.74;42.73;101535.41;6235230;23;20031;-64
2022/05/25 11:38:24;;;;;;;2.88;0.77;;;;;;;19.34;44.06;101538.72;6211157;23;20012;-62
2022/05/25 11:40:58;;;;;;;5.15;0.80;;;;;;;19.58;44.77;101516.81;6237080;23;20008;-62
2022/05/25 11:43:42;;;;;;;7.32;0.98;;;;;;;20.27;42.08;101516.13;6210793;23;20008;-66
2022/05/25 11:46:19;;;;;;;7.68;0.80;;;;;;;20.62;40.53;101519.25;6212429;23;20046;-64
2022/05/25 11:49:18;;;;;;;2.63;0.75;;;;;;;20.63;39.87;101527.19;6236084;23;20087;-62
2022/05/25 11:51:46;;;;;;;11.50;1.08;;;;;;;20.20;41.10;101510.28;6236583;23;20012;-63
2022/05/25 11:54:26;;;;;;;4.22;0.85;;;;;;;20.64;40.79;101507.47;6236040;23;20056;-63
2022/05/25 11:56:56;;;;;;;1.42;0.57;;;;;;;21.12;39.77;101511.47;6236312;23;20012;-63